sensor_id;sensor_type;location;lat;lon;timestamp;P1;durP1;ratioP1;P2;durP2;ratioP2
29728;SDS011;20055;51.498;11.960;2024-01-27T00:00:26;8.68;;;2.72;;
29728;SDS011;20055;51.498;11.960;2024-01-27T00:02:53;19.25;;;2.83;;
29728;SDS011;20055;51.498;11.960;2024-01-27T00:05:19;10.73;;;2.10;;
29728;SDS011;20055;51.498;11.960;2024-01-27T00:07:45;10.55;;;2.30;;
29728;SDS011;20055;51.498;11.960;2024-01-27T00:10:11;16.92;;;3.85;;
29728;SDS011;20055;51.498;11.960;2024-01-27T00:12:37;14.57;;;2.35;;
29728;SDS011;20055;51.498;11.960;2024-01-27T00:15:04;20.98;;;2.72;;
29728;SDS011;20055;51.498;11.960;2024-01-27T00:17:33;28.97;;;3.23;;
29728;SDS011;20055;51.498;11.960;2024-01-27T00:20:01;19.20;;;2.63;;
29728;SDS011;20055;51.498;11.960;2024-01-27T00:22:28;11.95;;;2.80;;
29728;SDS011;20055;51.498;11.960;2024-01-27T00:24:54;19.77;;;2.80;;
29728;SDS011;20055;51.498;11.960;2024-01-27T00:27:21;13.45;;;2.47;;
29728;SDS011;20055;51.498;11.960;2024-01-27T00:29:47;16.50;;;2.83;;
29728;SDS011;20055;51.498;11.960;2024-01-27T00:32:13;16.33;;;3.10;;
29728;SDS011;20055;51.498;11.960;2024-01-27T00:34:39;18.80;;;3.70;;
29728;SDS011;20055;51.498;11.960;2024-01-27T00:37:06;16.88;;;3.38;;
29728;SDS011;20055;51.498;11.960;2024-01-27T00:39:32;17.80;;;2.88;;
29728;SDS011;20055;51.498;11.960;2024-01-27T00:41:58;13.73;;;2.95;;
29728;SDS011;20055;51.498;11.960;2024-01-27T00:44:25;15.45;;;2.28;;
29728;SDS011;20055;51.498;11.960;2024-01-27T00:46:51;23.80;;;3.42;;
29728;SDS011;20055;51.498;11.960;2024-01-27T00:49:17;11.55;;;2.72;;
29728;SDS011;20055;51.498;11.960;2024-01-27T00:51:43;20.10;;;3.72;;
29728;SDS011;20055;51.498;11.960;2024-01-27T00:54:10;22.35;;;3.10;;
29728;SDS011;20055;51.498;11.960;2024-01-27T00:56:36;15.43;;;2.67;;
29728;SDS011;20055;51.498;11.960;2024-01-27T00:59:02;17.02;;;3.05;;
29728;SDS011;20055;51.498;11.960;2024-01-27T01:01:28;27.67;;;3.83;;
29728;SDS011;20055;51.498;11.960;2024-01-27T01:03:54;14.40;;;2.80;;
29728;SDS011;20055;51.498;11.960;2024-01-27T01:06:22;24.13;;;3.78;;
29728;SDS011;20055;51.498;11.960;2024-01-27T01:08:49;16.85;;;2.63;;
29728;SDS011;20055;51.498;11.960;2024-01-27T01:11:15;15.65;;;2.67;;
29728;SDS011;20055;51.498;11.960;2024-01-27T01:13:42;18.55;;;3.15;;
29728;SDS011;20055;51.498;11.960;2024-01-27T01:16:08;14.68;;;2.85;;
29728;SDS011;20055;51.498;11.960;2024-01-27T01:18:34;26.70;;;4.72;;
29728;SDS011;20055;51.498;11.960;2024-01-27T01:21:01;17.67;;;2.90;;
29728;SDS011;20055;51.498;11.960;2024-01-27T01:23:27;13.60;;;2.22;;
29728;SDS011;20055;51.498;11.960;2024-01-27T01:25:53;27.40;;;4.35;;
29728;SDS011;20055;51.498;11.960;2024-01-27T01:28:19;22.98;;;3.80;;
29728;SDS011;20055;51.498;11.960;2024-01-27T01:30:45;23.33;;;3.95;;
29728;SDS011;20055;51.498;11.960;2024-01-27T01:33:11;12.98;;;3.15;;
29728;SDS011;20055;51.498;11.960;2024-01-27T01:35:38;25.15;;;3.40;;
29728;SDS011;20055;51.498;11.960;2024-01-27T01:38:04;23.00;;;3.08;;
29728;SDS011;20055;51.498;11.960;2024-01-27T01:40:31;18.48;;;2.80;;
29728;SDS011;20055;51.498;11.960;2024-01-27T01:42:58;18.98;;;3.85;;
29728;SDS011;20055;51.498;11.960;2024-01-27T01:45:24;17.40;;;3.05;;
29728;SDS011;20055;51.498;11.960;2024-01-27T01:47:50;19.30;;;2.80;;
29728;SDS011;20055;51.498;11.960;2024-01-27T01:50:17;27.08;;;3.13;;
29728;SDS011;20055;51.498;11.960;2024-01-27T01:52:43;17.48;;;3.05;;
29728;SDS011;20055;51.498;11.960;2024-01-27T01:55:10;23.70;;;3.20;;
29728;SDS011;20055;51.498;11.960;2024-01-27T01:57:38;23.05;;;3.10;;
29728;SDS011;20055;51.498;11.960;2024-01-27T02:00:04;19.33;;;3.05;;
29728;SDS011;20055;51.498;11.960;2024-01-27T02:02:38;17.08;;;2.80;;
29728;SDS011;20055;51.498;11.960;2024-01-27T02:05:04;23.33;;;3.30;;
29728;SDS011;20055;51.498;11.960;2024-01-27T02:07:30;19.42;;;3.55;;
29728;SDS011;20055;51.498;11.960;2024-01-27T02:09:57;22.15;;;4.53;;
29728;SDS011;20055;51.498;11.960;2024-01-27T02:12:23;14.43;;;3.22;;
29728;SDS011;20055;51.498;11.960;2024-01-27T02:14:49;34.10;;;3.78;;
29728;SDS011;20055;51.498;11.960;2024-01-27T02:17:15;20.55;;;3.22;;
29728;SDS011;20055;51.498;11.960;2024-01-27T02:19:42;24.00;;;3.45;;
29728;SDS011;20055;51.498;11.960;2024-01-27T02:22:08;20.48;;;3.40;;
29728;SDS011;20055;51.498;11.960;2024-01-27T02:24:34;30.45;;;3.67;;
29728;SDS011;20055;51.498;11.960;2024-01-27T02:27:00;29.13;;;4.25;;
29728;SDS011;20055;51.498;11.960;2024-01-27T02:29:27;21.27;;;3.28;;
29728;SDS011;20055;51.498;11.960;2024-01-27T02:31:54;21.35;;;3.63;;
29728;SDS011;20055;51.498;11.960;2024-01-27T02:34:21;18.80;;;3.47;;
29728;SDS011;20055;51.498;11.960;2024-01-27T02:36:47;28.45;;;3.67;;
29728;SDS011;20055;51.498;11.960;2024-01-27T02:39:13;28.95;;;2.88;;
29728;SDS011;20055;51.498;11.960;2024-01-27T02:41:40;29.52;;;4.43;;
29728;SDS011;20055;51.498;11.960;2024-01-27T02:44:06;30.73;;;3.53;;
29728;SDS011;20055;51.498;11.960;2024-01-27T02:46:33;14.80;;;3.45;;
29728;SDS011;20055;51.498;11.960;2024-01-27T02:48:59;22.98;;;4.05;;
29728;SDS011;20055;51.498;11.960;2024-01-27T02:51:25;17.38;;;2.92;;
29728;SDS011;20055;51.498;11.960;2024-01-27T02:53:51;11.98;;;3.22;;
29728;SDS011;20055;51.498;11.960;2024-01-27T02:56:17;18.95;;;3.58;;
29728;SDS011;20055;51.498;11.960;2024-01-27T02:58:44;25.63;;;3.97;;
29728;SDS011;20055;51.498;11.960;2024-01-27T03:01:10;27.25;;;3.45;;
29728;SDS011;20055;51.498;11.960;2024-01-27T03:03:36;19.73;;;3.35;;
29728;SDS011;20055;51.498;11.960;2024-01-27T03:06:02;20.50;;;3.33;;
29728;SDS011;20055;51.498;11.960;2024-01-27T03:08:30;14.75;;;3.00;;
29728;SDS011;20055;51.498;11.960;2024-01-27T03:10:56;20.80;;;3.88;;
29728;SDS011;20055;51.498;11.960;2024-01-27T03:13:22;21.50;;;3.08;;
29728;SDS011;20055;51.498;11.960;2024-01-27T03:15:48;25.33;;;4.18;;
29728;SDS011;20055;51.498;11.960;2024-01-27T03:18:15;25.52;;;3.85;;
29728;SDS011;20055;51.498;11.960;2024-01-27T03:20:41;30.27;;;3.90;;
29728;SDS011;20055;51.498;11.960;2024-01-27T03:23:08;27.05;;;4.78;;
29728;SDS011;20055;51.498;11.960;2024-01-27T03:25:34;15.80;;;3.58;;
29728;SDS011;20055;51.498;11.960;2024-01-27T03:28:01;20.10;;;3.63;;
29728;SDS011;20055;51.498;11.960;2024-01-27T03:30:27;27.33;;;2.90;;
29728;SDS011;20055;51.498;11.960;2024-01-27T03:32:53;23.90;;;3.47;;
29728;SDS011;20055;51.498;11.960;2024-01-27T03:35:20;33.50;;;3.83;;
29728;SDS011;20055;51.498;11.960;2024-01-27T03:37:46;23.60;;;2.92;;
29728;SDS011;20055;51.498;11.960;2024-01-27T03:40:12;26.08;;;3.72;;
29728;SDS011;20055;51.498;11.960;2024-01-27T03:42:39;32.90;;;3.75;;
29728;SDS011;20055;51.498;11.960;2024-01-27T03:45:05;18.98;;;3.67;;
29728;SDS011;20055;51.498;11.960;2024-01-27T03:47:32;30.70;;;4.43;;
29728;SDS011;20055;51.498;11.960;2024-01-27T03:49:58;18.90;;;4.40;;
29728;SDS011;20055;51.498;11.960;2024-01-27T03:52:24;20.50;;;4.13;;
29728;SDS011;20055;51.498;11.960;2024-01-27T03:54:50;24.98;;;3.78;;
29728;SDS011;20055;51.498;11.960;2024-01-27T03:57:16;16.38;;;3.95;;
29728;SDS011;20055;51.498;11.960;2024-01-27T03:59:43;23.35;;;3.70;;
29728;SDS011;20055;51.498;11.960;2024-01-27T04:02:09;24.50;;;3.30;;
29728;SDS011;20055;51.498;11.960;2024-01-27T04:04:35;30.05;;;4.32;;
29728;SDS011;20055;51.498;11.960;2024-01-27T04:07:01;24.25;;;3.58;;
29728;SDS011;20055;51.498;11.960;2024-01-27T04:09:28;32.47;;;4.25;;
29728;SDS011;20055;51.498;11.960;2024-01-27T04:11:54;20.58;;;2.95;;
29728;SDS011;20055;51.498;11.960;2024-01-27T04:14:20;25.75;;;3.10;;
29728;SDS011;20055;51.498;11.960;2024-01-27T04:16:46;32.22;;;4.03;;
29728;SDS011;20055;51.498;11.960;2024-01-27T04:19:12;19.27;;;4.28;;
29728;SDS011;20055;51.498;11.960;2024-01-27T04:21:39;25.00;;;3.85;;
29728;SDS011;20055;51.498;11.960;2024-01-27T04:24:05;24.20;;;3.80;;
29728;SDS011;20055;51.498;11.960;2024-01-27T04:26:32;15.70;;;3.17;;
29728;SDS011;20055;51.498;11.960;2024-01-27T04:28:58;11.95;;;2.53;;
29728;SDS011;20055;51.498;11.960;2024-01-27T04:31:24;20.75;;;3.25;;
29728;SDS011;20055;51.498;11.960;2024-01-27T04:33:50;27.05;;;4.18;;
29728;SDS011;20055;51.498;11.960;2024-01-27T04:36:24;26.27;;;4.07;;
29728;SDS011;20055;51.498;11.960;2024-01-27T04:38:56;28.02;;;3.85;;
29728;SDS011;20055;51.498;11.960;2024-01-27T04:41:23;29.23;;;3.85;;
29728;SDS011;20055;51.498;11.960;2024-01-27T04:43:49;18.33;;;3.80;;
29728;SDS011;20055;51.498;11.960;2024-01-27T04:46:15;26.13;;;4.25;;
29728;SDS011;20055;51.498;11.960;2024-01-27T04:48:42;22.95;;;3.75;;
29728;SDS011;20055;51.498;11.960;2024-01-27T04:51:08;25.88;;;3.63;;
29728;SDS011;20055;51.498;11.960;2024-01-27T04:53:34;27.08;;;5.28;;
29728;SDS011;20055;51.498;11.960;2024-01-27T04:56:00;19.35;;;4.25;;
29728;SDS011;20055;51.498;11.960;2024-01-27T04:58:27;32.80;;;3.22;;
29728;SDS011;20055;51.498;11.960;2024-01-27T05:00:53;24.52;;;4.10;;
29728;SDS011;20055;51.498;11.960;2024-01-27T05:03:19;28.58;;;5.03;;
29728;SDS011;20055;51.498;11.960;2024-01-27T05:05:45;36.17;;;6.53;;
29728;SDS011;20055;51.498;11.960;2024-01-27T05:08:12;32.65;;;6.15;;
29728;SDS011;20055;51.498;11.960;2024-01-27T05:10:38;26.10;;;4.20;;
29728;SDS011;20055;51.498;11.960;2024-01-27T05:13:04;23.38;;;3.45;;
29728;SDS011;20055;51.498;11.960;2024-01-27T05:15:30;30.48;;;3.70;;
29728;SDS011;20055;51.498;11.960;2024-01-27T05:17:57;38.65;;;5.20;;
29728;SDS011;20055;51.498;11.960;2024-01-27T05:20:23;33.20;;;4.05;;
29728;SDS011;20055;51.498;11.960;2024-01-27T05:22:49;23.58;;;3.72;;
29728;SDS011;20055;51.498;11.960;2024-01-27T05:25:15;24.42;;;4.60;;
29728;SDS011;20055;51.498;11.960;2024-01-27T05:27:42;34.55;;;4.57;;
29728;SDS011;20055;51.498;11.960;2024-01-27T05:30:09;20.58;;;3.53;;
29728;SDS011;20055;51.498;11.960;2024-01-27T05:32:35;24.50;;;3.50;;
29728;SDS011;20055;51.498;11.960;2024-01-27T05:35:02;26.88;;;4.00;;
29728;SDS011;20055;51.498;11.960;2024-01-27T05:37:29;26.60;;;3.97;;
29728;SDS011;20055;51.498;11.960;2024-01-27T05:39:55;22.33;;;3.55;;
29728;SDS011;20055;51.498;11.960;2024-01-27T05:42:22;32.70;;;4.25;;
29728;SDS011;20055;51.498;11.960;2024-01-27T05:44:48;22.65;;;4.30;;
29728;SDS011;20055;51.498;11.960;2024-01-27T05:47:14;25.67;;;4.65;;
29728;SDS011;20055;51.498;11.960;2024-01-27T05:49:41;25.35;;;4.32;;
29728;SDS011;20055;51.498;11.960;2024-01-27T05:52:07;28.88;;;5.32;;
29728;SDS011;20055;51.498;11.960;2024-01-27T05:54:34;31.70;;;4.25;;
29728;SDS011;20055;51.498;11.960;2024-01-27T05:57:00;29.08;;;4.38;;
29728;SDS011;20055;51.498;11.960;2024-01-27T05:59:26;28.33;;;4.32;;
29728;SDS011;20055;51.498;11.960;2024-01-27T06:01:53;26.58;;;4.55;;
29728;SDS011;20055;51.498;11.960;2024-01-27T06:04:19;24.67;;;4.55;;
29728;SDS011;20055;51.498;11.960;2024-01-27T06:06:45;29.67;;;4.18;;
29728;SDS011;20055;51.498;11.960;2024-01-27T06:09:11;34.55;;;4.32;;
29728;SDS011;20055;51.498;11.960;2024-01-27T06:11:37;28.02;;;5.47;;
29728;SDS011;20055;51.498;11.960;2024-01-27T06:14:04;18.35;;;3.00;;
29728;SDS011;20055;51.498;11.960;2024-01-27T06:16:30;15.60;;;2.80;;
29728;SDS011;20055;51.498;11.960;2024-01-27T06:18:56;35.28;;;4.47;;
29728;SDS011;20055;51.498;11.960;2024-01-27T06:21:22;25.58;;;3.60;;
29728;SDS011;20055;51.498;11.960;2024-01-27T06:23:49;28.92;;;3.80;;
29728;SDS011;20055;51.498;11.960;2024-01-27T06:26:15;26.70;;;4.68;;
29728;SDS011;20055;51.498;11.960;2024-01-27T06:28:41;27.08;;;4.38;;
29728;SDS011;20055;51.498;11.960;2024-01-27T06:31:07;33.00;;;4.95;;
29728;SDS011;20055;51.498;11.960;2024-01-27T06:33:37;36.30;;;4.53;;
29728;SDS011;20055;51.498;11.960;2024-01-27T06:36:03;31.88;;;4.00;;
29728;SDS011;20055;51.498;11.960;2024-01-27T06:38:30;26.80;;;5.93;;
29728;SDS011;20055;51.498;11.960;2024-01-27T06:40:57;18.50;;;3.17;;
29728;SDS011;20055;51.498;11.960;2024-01-27T06:43:23;22.40;;;3.70;;
29728;SDS011;20055;51.498;11.960;2024-01-27T06:45:49;38.13;;;5.53;;
29728;SDS011;20055;51.498;11.960;2024-01-27T06:48:16;28.90;;;3.55;;
29728;SDS011;20055;51.498;11.960;2024-01-27T06:50:42;22.65;;;4.63;;
29728;SDS011;20055;51.498;11.960;2024-01-27T06:53:08;36.58;;;4.38;;
29728;SDS011;20055;51.498;11.960;2024-01-27T06:55:36;29.40;;;5.15;;
29728;SDS011;20055;51.498;11.960;2024-01-27T06:58:02;39.50;;;4.95;;
29728;SDS011;20055;51.498;11.960;2024-01-27T07:00:28;32.63;;;5.35;;
29728;SDS011;20055;51.498;11.960;2024-01-27T07:02:57;28.58;;;5.10;;
29728;SDS011;20055;51.498;11.960;2024-01-27T07:05:23;38.17;;;5.60;;
29728;SDS011;20055;51.498;11.960;2024-01-27T07:07:50;23.98;;;4.78;;
29728;SDS011;20055;51.498;11.960;2024-01-27T07:10:16;37.10;;;5.95;;
29728;SDS011;20055;51.498;11.960;2024-01-27T07:12:43;31.60;;;4.55;;
29728;SDS011;20055;51.498;11.960;2024-01-27T07:15:09;28.15;;;4.18;;
29728;SDS011;20055;51.498;11.960;2024-01-27T07:17:35;31.77;;;5.03;;
29728;SDS011;20055;51.498;11.960;2024-01-27T07:20:02;36.58;;;5.10;;
29728;SDS011;20055;51.498;11.960;2024-01-27T07:22:29;33.22;;;5.22;;
29728;SDS011;20055;51.498;11.960;2024-01-27T07:24:55;29.40;;;4.65;;
29728;SDS011;20055;51.498;11.960;2024-01-27T07:27:22;24.52;;;4.78;;
29728;SDS011;20055;51.498;11.960;2024-01-27T07:29:49;36.08;;;5.68;;
29728;SDS011;20055;51.498;11.960;2024-01-27T07:32:15;28.67;;;4.28;;
29728;SDS011;20055;51.498;11.960;2024-01-27T07:34:42;26.80;;;4.70;;
29728;SDS011;20055;51.498;11.960;2024-01-27T07:37:09;33.80;;;5.07;;
29728;SDS011;20055;51.498;11.960;2024-01-27T07:39:35;25.65;;;4.82;;
29728;SDS011;20055;51.498;11.960;2024-01-27T07:42:02;37.50;;;5.40;;
29728;SDS011;20055;51.498;11.960;2024-01-27T07:44:28;31.92;;;5.03;;
29728;SDS011;20055;51.498;11.960;2024-01-27T07:46:55;26.55;;;5.50;;
29728;SDS011;20055;51.498;11.960;2024-01-27T07:49:21;28.92;;;4.30;;
29728;SDS011;20055;51.498;11.960;2024-01-27T07:51:48;21.45;;;3.95;;
29728;SDS011;20055;51.498;11.960;2024-01-27T07:54:14;20.42;;;4.28;;
29728;SDS011;20055;51.498;11.960;2024-01-27T07:56:40;43.25;;;9.40;;
29728;SDS011;20055;51.498;11.960;2024-01-27T07:59:07;29.23;;;4.85;;
29728;SDS011;20055;51.498;11.960;2024-01-27T08:01:40;31.25;;;4.55;;
29728;SDS011;20055;51.498;11.960;2024-01-27T08:04:06;29.17;;;5.50;;
29728;SDS011;20055;51.498;11.960;2024-01-27T08:06:32;31.92;;;4.75;;
29728;SDS011;20055;51.498;11.960;2024-01-27T08:08:59;31.42;;;5.40;;
29728;SDS011;20055;51.498;11.960;2024-01-27T08:11:25;29.42;;;4.53;;
29728;SDS011;20055;51.498;11.960;2024-01-27T08:13:52;25.88;;;5.55;;
29728;SDS011;20055;51.498;11.960;2024-01-27T08:16:18;37.08;;;4.85;;
29728;SDS011;20055;51.498;11.960;2024-01-27T08:18:44;33.53;;;4.97;;
29728;SDS011;20055;51.498;11.960;2024-01-27T08:21:11;39.50;;;6.47;;
29728;SDS011;20055;51.498;11.960;2024-01-27T08:23:37;35.42;;;5.15;;
29728;SDS011;20055;51.498;11.960;2024-01-27T08:26:04;37.70;;;5.30;;
29728;SDS011;20055;51.498;11.960;2024-01-27T08:28:30;31.00;;;5.60;;
29728;SDS011;20055;51.498;11.960;2024-01-27T08:30:56;39.90;;;7.03;;
29728;SDS011;20055;51.498;11.960;2024-01-27T08:33:25;41.40;;;6.63;;
29728;SDS011;20055;51.498;11.960;2024-01-27T08:35:51;40.72;;;7.05;;
29728;SDS011;20055;51.498;11.960;2024-01-27T08:38:18;37.33;;;6.43;;
29728;SDS011;20055;51.498;11.960;2024-01-27T08:40:44;44.97;;;6.68;;
29728;SDS011;20055;51.498;11.960;2024-01-27T08:43:10;30.35;;;6.05;;
29728;SDS011;20055;51.498;11.960;2024-01-27T08:45:37;32.05;;;6.22;;
29728;SDS011;20055;51.498;11.960;2024-01-27T08:48:04;38.58;;;5.68;;
29728;SDS011;20055;51.498;11.960;2024-01-27T08:50:31;41.70;;;5.32;;
29728;SDS011;20055;51.498;11.960;2024-01-27T08:52:57;30.88;;;5.85;;
29728;SDS011;20055;51.498;11.960;2024-01-27T08:55:24;36.38;;;5.68;;
29728;SDS011;20055;51.498;11.960;2024-01-27T08:57:50;45.70;;;8.00;;
29728;SDS011;20055;51.498;11.960;2024-01-27T09:00:17;36.65;;;8.38;;
29728;SDS011;20055;51.498;11.960;2024-01-27T09:02:44;29.25;;;6.05;;
29728;SDS011;20055;51.498;11.960;2024-01-27T09:05:10;40.45;;;7.22;;
29728;SDS011;20055;51.498;11.960;2024-01-27T09:07:37;42.90;;;6.78;;
29728;SDS011;20055;51.498;11.960;2024-01-27T09:10:03;31.67;;;6.57;;
29728;SDS011;20055;51.498;11.960;2024-01-27T09:12:33;30.38;;;7.30;;
29728;SDS011;20055;51.498;11.960;2024-01-27T09:14:59;38.47;;;8.85;;
29728;SDS011;20055;51.498;11.960;2024-01-27T09:17:25;30.13;;;7.82;;
29728;SDS011;20055;51.498;11.960;2024-01-27T09:19:52;32.10;;;6.72;;
29728;SDS011;20055;51.498;11.960;2024-01-27T09:22:18;42.97;;;8.75;;
29728;SDS011;20055;51.498;11.960;2024-01-27T09:24:45;31.35;;;7.80;;
29728;SDS011;20055;51.498;11.960;2024-01-27T09:27:11;30.17;;;7.95;;
29728;SDS011;20055;51.498;11.960;2024-01-27T09:29:38;33.75;;;7.80;;
29728;SDS011;20055;51.498;11.960;2024-01-27T09:32:04;36.15;;;7.75;;
29728;SDS011;20055;51.498;11.960;2024-01-27T09:34:31;37.92;;;8.20;;
29728;SDS011;20055;51.498;11.960;2024-01-27T09:36:57;45.03;;;10.35;;
29728;SDS011;20055;51.498;11.960;2024-01-27T09:39:23;35.83;;;7.70;;
29728;SDS011;20055;51.498;11.960;2024-01-27T09:41:50;40.65;;;7.50;;
29728;SDS011;20055;51.498;11.960;2024-01-27T09:44:18;34.22;;;8.70;;
29728;SDS011;20055;51.498;11.960;2024-01-27T09:46:45;42.17;;;8.98;;
29728;SDS011;20055;51.498;11.960;2024-01-27T09:49:15;44.63;;;9.20;;
29728;SDS011;20055;51.498;11.960;2024-01-27T09:51:41;44.42;;;7.85;;
29728;SDS011;20055;51.498;11.960;2024-01-27T09:54:07;51.42;;;9.95;;
29728;SDS011;20055;51.498;11.960;2024-01-27T09:56:34;36.80;;;7.85;;
29728;SDS011;20055;51.498;11.960;2024-01-27T09:59:00;40.67;;;10.52;;
29728;SDS011;20055;51.498;11.960;2024-01-27T10:01:27;34.13;;;9.13;;
29728;SDS011;20055;51.498;11.960;2024-01-27T10:03:54;36.67;;;9.43;;
29728;SDS011;20055;51.498;11.960;2024-01-27T10:06:21;34.60;;;7.68;;
29728;SDS011;20055;51.498;11.960;2024-01-27T10:08:51;39.25;;;9.38;;
29728;SDS011;20055;51.498;11.960;2024-01-27T10:11:19;38.95;;;8.70;;
29728;SDS011;20055;51.498;11.960;2024-01-27T10:13:53;37.10;;;8.80;;
29728;SDS011;20055;51.498;11.960;2024-01-27T10:16:21;33.17;;;9.40;;
29728;SDS011;20055;51.498;11.960;2024-01-27T10:18:58;41.92;;;9.60;;
29728;SDS011;20055;51.498;11.960;2024-01-27T10:21:28;44.25;;;9.00;;
29728;SDS011;20055;51.498;11.960;2024-01-27T10:23:54;32.03;;;8.05;;
29728;SDS011;20055;51.498;11.960;2024-01-27T10:26:20;32.40;;;8.43;;
29728;SDS011;20055;51.498;11.960;2024-01-27T10:28:54;37.15;;;8.57;;
29728;SDS011;20055;51.498;11.960;2024-01-27T10:31:27;48.42;;;9.27;;
29728;SDS011;20055;51.498;11.960;2024-01-27T10:33:55;25.80;;;7.43;;
29728;SDS011;20055;51.498;11.960;2024-01-27T10:36:22;35.03;;;7.75;;
29728;SDS011;20055;51.498;11.960;2024-01-27T10:38:49;43.58;;;10.40;;
29728;SDS011;20055;51.498;11.960;2024-01-27T10:41:20;32.00;;;8.80;;
29728;SDS011;20055;51.498;11.960;2024-01-27T10:43:52;30.17;;;7.35;;
29728;SDS011;20055;51.498;11.960;2024-01-27T10:46:22;40.13;;;8.55;;
29728;SDS011;20055;51.498;11.960;2024-01-27T10:48:52;34.85;;;8.23;;
29728;SDS011;20055;51.498;11.960;2024-01-27T10:53:24;32.53;;;8.85;;
29728;SDS011;20055;51.498;11.960;2024-01-27T10:55:53;32.08;;;8.63;;
29728;SDS011;20055;51.498;11.960;2024-01-27T10:58:23;34.72;;;8.68;;
29728;SDS011;20055;51.498;11.960;2024-01-27T11:00:50;28.63;;;8.77;;
29728;SDS011;20055;51.498;11.960;2024-01-27T11:03:18;47.53;;;9.57;;
29728;SDS011;20055;51.498;11.960;2024-01-27T11:05:46;30.63;;;8.02;;
29728;SDS011;20055;51.498;11.960;2024-01-27T11:08:12;29.13;;;7.40;;
29728;SDS011;20055;51.498;11.960;2024-01-27T11:10:42;28.27;;;7.53;;
29728;SDS011;20055;51.498;11.960;2024-01-27T11:13:08;30.40;;;7.82;;
29728;SDS011;20055;51.498;11.960;2024-01-27T11:15:35;26.27;;;7.35;;
29728;SDS011;20055;51.498;11.960;2024-01-27T11:18:04;27.98;;;6.88;;
29728;SDS011;20055;51.498;11.960;2024-01-27T11:20:30;27.70;;;7.30;;
29728;SDS011;20055;51.498;11.960;2024-01-27T11:23:16;38.25;;;7.32;;
29728;SDS011;20055;51.498;11.960;2024-01-27T11:25:42;30.60;;;7.18;;
29728;SDS011;20055;51.498;11.960;2024-01-27T11:28:12;36.67;;;6.43;;
29728;SDS011;20055;51.498;11.960;2024-01-27T11:30:44;34.67;;;7.47;;
29728;SDS011;20055;51.498;11.960;2024-01-27T11:33:12;31.58;;;7.60;;
29728;SDS011;20055;51.498;11.960;2024-01-27T11:35:39;30.98;;;6.97;;
29728;SDS011;20055;51.498;11.960;2024-01-27T11:38:05;25.50;;;6.53;;
29728;SDS011;20055;51.498;11.960;2024-01-27T11:40:31;38.30;;;9.93;;
29728;SDS011;20055;51.498;11.960;2024-01-27T11:43:00;32.03;;;6.93;;
29728;SDS011;20055;51.498;11.960;2024-01-27T11:45:27;26.98;;;7.20;;
29728;SDS011;20055;51.498;11.960;2024-01-27T11:47:54;33.28;;;7.60;;
29728;SDS011;20055;51.498;11.960;2024-01-27T11:50:21;36.38;;;7.88;;
29728;SDS011;20055;51.498;11.960;2024-01-27T11:52:48;47.40;;;15.07;;
29728;SDS011;20055;51.498;11.960;2024-01-27T11:55:15;28.05;;;7.25;;
29728;SDS011;20055;51.498;11.960;2024-01-27T11:57:41;31.98;;;8.02;;
29728;SDS011;20055;51.498;11.960;2024-01-27T12:00:08;47.42;;;9.50;;
29728;SDS011;20055;51.498;11.960;2024-01-27T12:02:37;30.58;;;7.38;;
29728;SDS011;20055;51.498;11.960;2024-01-27T12:05:05;31.48;;;7.13;;
29728;SDS011;20055;51.498;11.960;2024-01-27T12:07:31;34.88;;;7.50;;
29728;SDS011;20055;51.498;11.960;2024-01-27T12:09:59;37.10;;;7.60;;
29728;SDS011;20055;51.498;11.960;2024-01-27T12:12:25;32.28;;;6.93;;
29728;SDS011;20055;51.498;11.960;2024-01-27T12:14:51;32.10;;;6.15;;
29728;SDS011;20055;51.498;11.960;2024-01-27T12:17:18;41.15;;;7.30;;
29728;SDS011;20055;51.498;11.960;2024-01-27T12:19:46;42.70;;;6.57;;
29728;SDS011;20055;51.498;11.960;2024-01-27T12:22:28;25.45;;;6.50;;
29728;SDS011;20055;51.498;11.960;2024-01-27T12:24:56;29.92;;;5.60;;
29728;SDS011;20055;51.498;11.960;2024-01-27T12:27:34;24.83;;;5.57;;
29728;SDS011;20055;51.498;11.960;2024-01-27T12:30:01;27.75;;;6.80;;
29728;SDS011;20055;51.498;11.960;2024-01-27T12:32:28;23.65;;;4.97;;
29728;SDS011;20055;51.498;11.960;2024-01-27T12:34:54;28.60;;;5.63;;
29728;SDS011;20055;51.498;11.960;2024-01-27T12:37:21;29.27;;;5.30;;
29728;SDS011;20055;51.498;11.960;2024-01-27T12:39:48;28.67;;;5.63;;
29728;SDS011;20055;51.498;11.960;2024-01-27T12:42:17;30.25;;;6.60;;
29728;SDS011;20055;51.498;11.960;2024-01-27T12:44:43;27.48;;;5.93;;
29728;SDS011;20055;51.498;11.960;2024-01-27T12:47:09;27.70;;;5.75;;
29728;SDS011;20055;51.498;11.960;2024-01-27T12:49:36;26.27;;;5.82;;
29728;SDS011;20055;51.498;11.960;2024-01-27T12:52:02;20.17;;;5.13;;
29728;SDS011;20055;51.498;11.960;2024-01-27T12:54:29;31.17;;;5.60;;
29728;SDS011;20055;51.498;11.960;2024-01-27T12:56:55;36.83;;;5.82;;
29728;SDS011;20055;51.498;11.960;2024-01-27T12:59:22;27.65;;;6.18;;
29728;SDS011;20055;51.498;11.960;2024-01-27T13:01:49;27.17;;;5.35;;
29728;SDS011;20055;51.498;11.960;2024-01-27T13:04:15;21.27;;;4.38;;
29728;SDS011;20055;51.498;11.960;2024-01-27T13:06:41;33.38;;;5.93;;
29728;SDS011;20055;51.498;11.960;2024-01-27T13:09:08;27.00;;;5.10;;
29728;SDS011;20055;51.498;11.960;2024-01-27T13:11:38;31.90;;;5.53;;
29728;SDS011;20055;51.498;11.960;2024-01-27T13:14:04;17.88;;;4.55;;
29728;SDS011;20055;51.498;11.960;2024-01-27T13:16:31;27.60;;;4.78;;
29728;SDS011;20055;51.498;11.960;2024-01-27T13:18:58;20.27;;;6.40;;
29728;SDS011;20055;51.498;11.960;2024-01-27T13:21:24;25.10;;;4.68;;
29728;SDS011;20055;51.498;11.960;2024-01-27T13:23:51;25.13;;;5.05;;
29728;SDS011;20055;51.498;11.960;2024-01-27T13:26:18;26.27;;;4.72;;
29728;SDS011;20055;51.498;11.960;2024-01-27T13:28:45;28.77;;;5.25;;
29728;SDS011;20055;51.498;11.960;2024-01-27T13:31:14;19.60;;;5.40;;
29728;SDS011;20055;51.498;11.960;2024-01-27T13:33:40;36.00;;;6.25;;
29728;SDS011;20055;51.498;11.960;2024-01-27T13:36:07;29.08;;;4.75;;
29728;SDS011;20055;51.498;11.960;2024-01-27T13:38:33;34.20;;;5.18;;
29728;SDS011;20055;51.498;11.960;2024-01-27T13:41:01;31.30;;;4.72;;
29728;SDS011;20055;51.498;11.960;2024-01-27T13:43:27;29.20;;;5.20;;
29728;SDS011;20055;51.498;11.960;2024-01-27T13:45:54;25.40;;;5.15;;
29728;SDS011;20055;51.498;11.960;2024-01-27T13:48:20;32.92;;;5.40;;
29728;SDS011;20055;51.498;11.960;2024-01-27T13:50:47;29.63;;;4.57;;
29728;SDS011;20055;51.498;11.960;2024-01-27T13:53:13;27.60;;;4.50;;
29728;SDS011;20055;51.498;11.960;2024-01-27T13:55:39;26.60;;;3.88;;
29728;SDS011;20055;51.498;11.960;2024-01-27T13:58:06;27.15;;;3.88;;
29728;SDS011;20055;51.498;11.960;2024-01-27T14:00:32;23.63;;;4.72;;
29728;SDS011;20055;51.498;11.960;2024-01-27T14:03:00;37.20;;;5.53;;
29728;SDS011;20055;51.498;11.960;2024-01-27T14:05:26;22.52;;;3.85;;
29728;SDS011;20055;51.498;11.960;2024-01-27T14:07:52;29.40;;;4.10;;
29728;SDS011;20055;51.498;11.960;2024-01-27T14:10:18;31.30;;;4.28;;
29728;SDS011;20055;51.498;11.960;2024-01-27T14:12:45;19.02;;;3.55;;
29728;SDS011;20055;51.498;11.960;2024-01-27T14:15:11;26.40;;;4.90;;
29728;SDS011;20055;51.498;11.960;2024-01-27T14:17:37;24.15;;;4.10;;
29728;SDS011;20055;51.498;11.960;2024-01-27T14:20:04;24.02;;;4.28;;